Terminal Aerodrome Forecast
Issued by NWS St Louis, MO

Home | Current Version | Previous Version | Text Only | Print | Product List | Glossary On
Versions: 1 2 3 4 5 6 7 8 9 10 11 12 13 14 15 16 17 18 19 20 21 22 23 24 25 26 27 28 29
000
FTUS43 KLSX 161507 AAA
TAFSTL
TAF AMD
KSTL 161507Z 1615/1718 11009KT 1SM BR VCSH OVC003
      TEMPO 1615/1616 1/4SM FG VV001
     FM161600 12007KT 2SM -SHRA BR OVC003
     FM161800 14009KT 4SM -SHRA BR OVC004
     FM162200 14010KT 4SM -SHRA BR OVC006
     FM170300 18008KT 5SM -SHRA BR OVC012
     FM170600 22009KT 5SM BR OVC012=

USA.gov is the U.S. government's official web portal to all federal, state and local government web resources and services.